Main page
METAR-TAF:

METAR-TAF

Airports :

Multan International Airport

Multan, Pakistan

latitude: 30-12-12N, longitude: 71-25-09E, elevation: 122 m

Current weather observation

The report was made 26 minutes ago, at 06:55 UTC
Calm wind
Temperature 38°C
Humidity 27%
Pressure 1004 hPa
Visibility: 5000 m
Few clouds at a height of 12000 ft
haze

METAR: OPMT 180655Z 00000KT 5000 HZ FEW120 38/16 Q1004 NOSIG

Time: 12:21 (07:21 UTC)

Forecast

The report was made 3 hours and 36 minutes ago, at 03:45 UTC
Forecast valid from 18 at 06 UTC to 18 at 24 UTC
Wind 12 kt from the Southwest
Visibility: 4000 m
Scattered clouds at a height of 10000 ft
smoke
Probability 30% :
Temporary
from 18 at 12 UTC to 18 at 16 UTC
Wind 25 kt from the West
Visibility: 2000 m
Few clouds at a height of 4000 ft
Scattered clouds at a height of 10000 ft
Low drifting dust

TAF: OPMT 180345Z 1806/1824 23012KT 4000 FU SCT100 TX39/1810Z PROB30 TEMPO 1812/1816 27025KT 2000 DRDU FEW040 SCT100

Weather observations and forecasts of more than 4000 airports (METAR and TAF reports).

The available stations are represented by yellow and red dots on the map.

Hover mouse over dot to see the name of the station.

Then click to see weather observations and forecasts.

To change the map : click on the green buttons with a black cross to zoom in, on the green button with a dash to zoom out, or on the green arrows for adjacent maps.


METAR-TAF: